sensor_id;sensor_type;location;lat;lon;timestamp;P1;durP1;ratioP1;P2;durP2;ratioP2
65597;SDS011;52267;51.984;20.956;2023-08-06T00:01:52;28.50;;;14.70;;
65597;SDS011;52267;51.984;20.956;2023-08-06T00:04:19;27.40;;;15.30;;
65597;SDS011;52267;51.984;20.956;2023-08-06T00:06:46;28.90;;;17.30;;
65597;SDS011;52267;51.984;20.956;2023-08-06T00:09:13;33.70;;;18.00;;
65597;SDS011;52267;51.984;20.956;2023-08-06T00:11:40;31.50;;;17.00;;
65597;SDS011;52267;51.984;20.956;2023-08-06T00:14:07;32.20;;;16.30;;
65597;SDS011;52267;51.984;20.956;2023-08-06T00:16:34;25.60;;;16.20;;
65597;SDS011;52267;51.984;20.956;2023-08-06T00:19:01;31.30;;;18.10;;
65597;SDS011;52267;51.984;20.956;2023-08-06T00:21:29;32.00;;;16.70;;
65597;SDS011;52267;51.984;20.956;2023-08-06T00:23:56;24.20;;;15.50;;
65597;SDS011;52267;51.984;20.956;2023-08-06T00:26:23;28.10;;;15.80;;
65597;SDS011;52267;51.984;20.956;2023-08-06T00:28:51;20.40;;;14.80;;
65597;SDS011;52267;51.984;20.956;2023-08-06T00:31:18;20.50;;;13.10;;
65597;SDS011;52267;51.984;20.956;2023-08-06T00:33:45;22.70;;;13.30;;
65597;SDS011;52267;51.984;20.956;2023-08-06T00:36:12;22.40;;;13.40;;
65597;SDS011;52267;51.984;20.956;2023-08-06T00:38:39;20.20;;;12.30;;
65597;SDS011;52267;51.984;20.956;2023-08-06T00:41:08;20.30;;;12.40;;
65597;SDS011;52267;51.984;20.956;2023-08-06T00:43:35;19.50;;;12.90;;
65597;SDS011;52267;51.984;20.956;2023-08-06T00:46:02;18.60;;;12.90;;
65597;SDS011;52267;51.984;20.956;2023-08-06T00:48:29;16.80;;;11.30;;
65597;SDS011;52267;51.984;20.956;2023-08-06T00:50:57;19.50;;;12.10;;
65597;SDS011;52267;51.984;20.956;2023-08-06T00:53:24;17.30;;;10.40;;
65597;SDS011;52267;51.984;20.956;2023-08-06T00:55:52;16.70;;;11.20;;
65597;SDS011;52267;51.984;20.956;2023-08-06T00:58:19;17.40;;;11.40;;
65597;SDS011;52267;51.984;20.956;2023-08-06T01:00:46;16.10;;;11.00;;
65597;SDS011;52267;51.984;20.956;2023-08-06T01:03:13;16.10;;;11.70;;
65597;SDS011;52267;51.984;20.956;2023-08-06T01:05:40;17.20;;;10.90;;
65597;SDS011;52267;51.984;20.956;2023-08-06T01:11:30;17.80;;;12.10;;
65597;SDS011;52267;51.984;20.956;2023-08-06T01:14:07;17.40;;;10.50;;
65597;SDS011;52267;51.984;20.956;2023-08-06T01:16:40;14.40;;;10.10;;
65597;SDS011;52267;51.984;20.956;2023-08-06T01:19:17;15.20;;;10.80;;
65597;SDS011;52267;51.984;20.956;2023-08-06T01:21:45;18.60;;;11.20;;
65597;SDS011;52267;51.984;20.956;2023-08-06T01:24:12;17.20;;;11.10;;
65597;SDS011;52267;51.984;20.956;2023-08-06T01:26:48;16.60;;;10.70;;
65597;SDS011;52267;51.984;20.956;2023-08-06T01:29:25;13.70;;;9.70;;
65597;SDS011;52267;51.984;20.956;2023-08-06T01:31:57;16.30;;;11.50;;
65597;SDS011;52267;51.984;20.956;2023-08-06T01:34:28;16.00;;;10.30;;
65597;SDS011;52267;51.984;20.956;2023-08-06T01:36:59;19.10;;;11.80;;
65597;SDS011;52267;51.984;20.956;2023-08-06T01:39:27;19.40;;;11.60;;
65597;SDS011;52267;51.984;20.956;2023-08-06T01:41:54;17.50;;;11.90;;
65597;SDS011;52267;51.984;20.956;2023-08-06T01:44:21;16.00;;;10.50;;
65597;SDS011;52267;51.984;20.956;2023-08-06T01:46:48;17.20;;;10.60;;
65597;SDS011;52267;51.984;20.956;2023-08-06T01:49:15;16.90;;;10.40;;
65597;SDS011;52267;51.984;20.956;2023-08-06T01:51:42;17.00;;;11.90;;
65597;SDS011;52267;51.984;20.956;2023-08-06T01:54:09;18.50;;;11.60;;
65597;SDS011;52267;51.984;20.956;2023-08-06T01:56:36;18.30;;;11.30;;
65597;SDS011;52267;51.984;20.956;2023-08-06T01:59:03;16.00;;;11.10;;
65597;SDS011;52267;51.984;20.956;2023-08-06T02:01:30;16.20;;;11.20;;
65597;SDS011;52267;51.984;20.956;2023-08-06T02:03:57;16.00;;;11.00;;
65597;SDS011;52267;51.984;20.956;2023-08-06T02:06:24;15.90;;;10.90;;
65597;SDS011;52267;51.984;20.956;2023-08-06T02:08:51;18.40;;;12.30;;
65597;SDS011;52267;51.984;20.956;2023-08-06T02:11:18;16.90;;;11.30;;
65597;SDS011;52267;51.984;20.956;2023-08-06T02:13:46;17.10;;;11.60;;
65597;SDS011;52267;51.984;20.956;2023-08-06T02:16:13;18.00;;;11.30;;
65597;SDS011;52267;51.984;20.956;2023-08-06T02:18:40;18.10;;;11.50;;
65597;SDS011;52267;51.984;20.956;2023-08-06T02:21:07;21.80;;;13.10;;
65597;SDS011;52267;51.984;20.956;2023-08-06T02:23:34;17.80;;;11.80;;
65597;SDS011;52267;51.984;20.956;2023-08-06T02:26:02;18.20;;;12.20;;
65597;SDS011;52267;51.984;20.956;2023-08-06T02:28:32;19.20;;;12.70;;
65597;SDS011;52267;51.984;20.956;2023-08-06T02:30:59;21.20;;;13.00;;
65597;SDS011;52267;51.984;20.956;2023-08-06T02:33:26;19.90;;;12.20;;
65597;SDS011;52267;51.984;20.956;2023-08-06T02:36:01;19.10;;;11.70;;
65597;SDS011;52267;51.984;20.956;2023-08-06T02:38:31;19.10;;;11.30;;
65597;SDS011;52267;51.984;20.956;2023-08-06T02:40:58;17.10;;;12.20;;
65597;SDS011;52267;51.984;20.956;2023-08-06T02:43:25;18.60;;;12.00;;
65597;SDS011;52267;51.984;20.956;2023-08-06T02:45:56;17.60;;;12.20;;
65597;SDS011;52267;51.984;20.956;2023-08-06T02:48:27;18.80;;;11.30;;
65597;SDS011;52267;51.984;20.956;2023-08-06T02:50:57;20.50;;;12.60;;
65597;SDS011;52267;51.984;20.956;2023-08-06T02:53:26;16.90;;;11.20;;
65597;SDS011;52267;51.984;20.956;2023-08-06T02:55:53;19.70;;;11.70;;
65597;SDS011;52267;51.984;20.956;2023-08-06T02:58:21;17.90;;;11.30;;
65597;SDS011;52267;51.984;20.956;2023-08-06T03:01:05;17.20;;;11.70;;
65597;SDS011;52267;51.984;20.956;2023-08-06T03:03:33;16.60;;;11.20;;
65597;SDS011;52267;51.984;20.956;2023-08-06T03:06:01;17.70;;;10.90;;
65597;SDS011;52267;51.984;20.956;2023-08-06T03:08:28;16.50;;;10.90;;
65597;SDS011;52267;51.984;20.956;2023-08-06T03:10:55;17.30;;;11.80;;
65597;SDS011;52267;51.984;20.956;2023-08-06T03:13:22;15.40;;;11.50;;
65597;SDS011;52267;51.984;20.956;2023-08-06T03:15:58;15.40;;;10.70;;
65597;SDS011;52267;51.984;20.956;2023-08-06T03:18:26;16.50;;;11.20;;
65597;SDS011;52267;51.984;20.956;2023-08-06T03:20:53;16.70;;;11.30;;
65597;SDS011;52267;51.984;20.956;2023-08-06T03:23:20;16.80;;;11.40;;
65597;SDS011;52267;51.984;20.956;2023-08-06T03:25:47;17.00;;;11.40;;
65597;SDS011;52267;51.984;20.956;2023-08-06T03:28:14;20.50;;;12.20;;
65597;SDS011;52267;51.984;20.956;2023-08-06T03:30:42;18.40;;;12.60;;
65597;SDS011;52267;51.984;20.956;2023-08-06T03:33:09;19.80;;;12.50;;
65597;SDS011;52267;51.984;20.956;2023-08-06T03:35:36;21.20;;;12.70;;
65597;SDS011;52267;51.984;20.956;2023-08-06T03:38:03;19.50;;;13.10;;
65597;SDS011;52267;51.984;20.956;2023-08-06T03:40:30;20.70;;;13.50;;
65597;SDS011;52267;51.984;20.956;2023-08-06T03:42:57;19.40;;;12.70;;
65597;SDS011;52267;51.984;20.956;2023-08-06T03:45:24;16.50;;;11.60;;
65597;SDS011;52267;51.984;20.956;2023-08-06T03:47:51;21.10;;;12.90;;
65597;SDS011;52267;51.984;20.956;2023-08-06T03:50:18;21.80;;;13.40;;
65597;SDS011;52267;51.984;20.956;2023-08-06T03:52:45;19.70;;;13.00;;
65597;SDS011;52267;51.984;20.956;2023-08-06T03:55:12;19.50;;;11.60;;
65597;SDS011;52267;51.984;20.956;2023-08-06T03:57:39;17.50;;;12.30;;
65597;SDS011;52267;51.984;20.956;2023-08-06T04:00:07;19.60;;;12.80;;
65597;SDS011;52267;51.984;20.956;2023-08-06T04:02:34;22.20;;;13.90;;
65597;SDS011;52267;51.984;20.956;2023-08-06T04:05:01;18.40;;;12.80;;
65597;SDS011;52267;51.984;20.956;2023-08-06T04:07:28;20.60;;;13.90;;
65597;SDS011;52267;51.984;20.956;2023-08-06T04:10:00;21.40;;;13.90;;
65597;SDS011;52267;51.984;20.956;2023-08-06T04:12:30;18.50;;;13.00;;
65597;SDS011;52267;51.984;20.956;2023-08-06T04:14:58;25.10;;;15.80;;
65597;SDS011;52267;51.984;20.956;2023-08-06T04:17:26;21.10;;;14.10;;
65597;SDS011;52267;51.984;20.956;2023-08-06T04:19:54;22.80;;;13.90;;
65597;SDS011;52267;51.984;20.956;2023-08-06T04:22:21;21.20;;;13.90;;
65597;SDS011;52267;51.984;20.956;2023-08-06T04:24:48;20.80;;;13.70;;
65597;SDS011;52267;51.984;20.956;2023-08-06T04:27:17;21.20;;;13.10;;
65597;SDS011;52267;51.984;20.956;2023-08-06T04:29:45;20.40;;;14.00;;
65597;SDS011;52267;51.984;20.956;2023-08-06T04:32:12;20.70;;;14.60;;
65597;SDS011;52267;51.984;20.956;2023-08-06T04:34:39;25.50;;;15.90;;
65597;SDS011;52267;51.984;20.956;2023-08-06T04:37:07;20.70;;;15.30;;
65597;SDS011;52267;51.984;20.956;2023-08-06T04:39:34;21.70;;;14.90;;
65597;SDS011;52267;51.984;20.956;2023-08-06T04:42:01;22.20;;;15.00;;
65597;SDS011;52267;51.984;20.956;2023-08-06T04:44:28;22.60;;;15.20;;
65597;SDS011;52267;51.984;20.956;2023-08-06T04:46:55;22.10;;;16.50;;
65597;SDS011;52267;51.984;20.956;2023-08-06T04:49:22;23.60;;;14.80;;
65597;SDS011;52267;51.984;20.956;2023-08-06T04:51:49;21.50;;;15.20;;
65597;SDS011;52267;51.984;20.956;2023-08-06T04:54:16;23.20;;;15.80;;
65597;SDS011;52267;51.984;20.956;2023-08-06T04:56:43;21.40;;;15.80;;
65597;SDS011;52267;51.984;20.956;2023-08-06T04:59:10;21.60;;;15.70;;
65597;SDS011;52267;51.984;20.956;2023-08-06T05:01:37;22.50;;;16.00;;
65597;SDS011;52267;51.984;20.956;2023-08-06T05:04:04;22.10;;;14.90;;
65597;SDS011;52267;51.984;20.956;2023-08-06T05:06:31;21.90;;;15.90;;
65597;SDS011;52267;51.984;20.956;2023-08-06T05:08:58;20.90;;;13.50;;
65597;SDS011;52267;51.984;20.956;2023-08-06T05:11:25;22.00;;;16.60;;
65597;SDS011;52267;51.984;20.956;2023-08-06T05:13:52;20.60;;;15.00;;
65597;SDS011;52267;51.984;20.956;2023-08-06T05:16:19;20.30;;;15.70;;
65597;SDS011;52267;51.984;20.956;2023-08-06T05:18:46;21.60;;;16.20;;
65597;SDS011;52267;51.984;20.956;2023-08-06T05:21:13;21.20;;;16.50;;
65597;SDS011;52267;51.984;20.956;2023-08-06T05:23:40;21.10;;;15.20;;
65597;SDS011;52267;51.984;20.956;2023-08-06T05:26:07;22.10;;;15.90;;
65597;SDS011;52267;51.984;20.956;2023-08-06T05:28:34;19.30;;;15.50;;
65597;SDS011;52267;51.984;20.956;2023-08-06T05:31:04;19.40;;;14.60;;
65597;SDS011;52267;51.984;20.956;2023-08-06T05:33:52;19.80;;;15.00;;
65597;SDS011;52267;51.984;20.956;2023-08-06T05:36:19;21.70;;;15.40;;
65597;SDS011;52267;51.984;20.956;2023-08-06T05:38:46;21.10;;;15.70;;
65597;SDS011;52267;51.984;20.956;2023-08-06T05:41:13;18.60;;;14.20;;
65597;SDS011;52267;51.984;20.956;2023-08-06T05:43:40;18.70;;;14.90;;
65597;SDS011;52267;51.984;20.956;2023-08-06T05:46:07;20.90;;;15.20;;
65597;SDS011;52267;51.984;20.956;2023-08-06T05:48:34;17.70;;;14.50;;
65597;SDS011;52267;51.984;20.956;2023-08-06T05:51:01;18.40;;;13.90;;
65597;SDS011;52267;51.984;20.956;2023-08-06T05:53:28;18.40;;;14.30;;
65597;SDS011;52267;51.984;20.956;2023-08-06T05:55:55;17.60;;;13.40;;
65597;SDS011;52267;51.984;20.956;2023-08-06T05:58:22;19.50;;;14.20;;
65597;SDS011;52267;51.984;20.956;2023-08-06T06:00:52;17.40;;;14.60;;
65597;SDS011;52267;51.984;20.956;2023-08-06T06:03:19;16.90;;;12.70;;
65597;SDS011;52267;51.984;20.956;2023-08-06T06:05:46;18.40;;;13.80;;
65597;SDS011;52267;51.984;20.956;2023-08-06T06:08:13;14.10;;;11.90;;
65597;SDS011;52267;51.984;20.956;2023-08-06T06:10:41;19.10;;;14.20;;
65597;SDS011;52267;51.984;20.956;2023-08-06T06:13:08;17.40;;;13.90;;
65597;SDS011;52267;51.984;20.956;2023-08-06T06:15:35;18.90;;;14.30;;
65597;SDS011;52267;51.984;20.956;2023-08-06T06:18:02;17.00;;;13.30;;
65597;SDS011;52267;51.984;20.956;2023-08-06T06:20:31;16.60;;;13.50;;
65597;SDS011;52267;51.984;20.956;2023-08-06T06:22:59;20.10;;;13.50;;
65597;SDS011;52267;51.984;20.956;2023-08-06T06:25:26;16.00;;;13.70;;
65597;SDS011;52267;51.984;20.956;2023-08-06T06:27:53;16.40;;;12.60;;
65597;SDS011;52267;51.984;20.956;2023-08-06T06:30:20;15.70;;;13.10;;
65597;SDS011;52267;51.984;20.956;2023-08-06T06:32:47;17.40;;;12.90;;
65597;SDS011;52267;51.984;20.956;2023-08-06T06:35:14;14.70;;;12.50;;
65597;SDS011;52267;51.984;20.956;2023-08-06T06:37:41;16.40;;;12.10;;
65597;SDS011;52267;51.984;20.956;2023-08-06T06:40:08;16.90;;;11.90;;
65597;SDS011;52267;51.984;20.956;2023-08-06T06:42:35;17.50;;;12.90;;
65597;SDS011;52267;51.984;20.956;2023-08-06T06:45:03;13.90;;;11.60;;
65597;SDS011;52267;51.984;20.956;2023-08-06T06:47:30;14.40;;;12.50;;
65597;SDS011;52267;51.984;20.956;2023-08-06T06:49:57;15.60;;;12.10;;
65597;SDS011;52267;51.984;20.956;2023-08-06T06:52:24;13.90;;;11.40;;
65597;SDS011;52267;51.984;20.956;2023-08-06T06:54:51;14.30;;;12.00;;
65597;SDS011;52267;51.984;20.956;2023-08-06T06:57:18;13.80;;;10.70;;
65597;SDS011;52267;51.984;20.956;2023-08-06T06:59:45;15.70;;;11.30;;
65597;SDS011;52267;51.984;20.956;2023-08-06T07:02:12;14.30;;;11.70;;
65597;SDS011;52267;51.984;20.956;2023-08-06T07:04:39;13.30;;;11.10;;
65597;SDS011;52267;51.984;20.956;2023-08-06T07:07:06;15.10;;;12.90;;
65597;SDS011;52267;51.984;20.956;2023-08-06T07:09:33;13.40;;;11.20;;
65597;SDS011;52267;51.984;20.956;2023-08-06T07:12:00;12.50;;;11.30;;
65597;SDS011;52267;51.984;20.956;2023-08-06T07:14:28;15.20;;;11.40;;
65597;SDS011;52267;51.984;20.956;2023-08-06T07:16:56;13.10;;;11.10;;
65597;SDS011;52267;51.984;20.956;2023-08-06T07:19:23;14.60;;;11.00;;
65597;SDS011;52267;51.984;20.956;2023-08-06T07:21:50;15.10;;;12.10;;
65597;SDS011;52267;51.984;20.956;2023-08-06T07:24:17;14.70;;;12.00;;
65597;SDS011;52267;51.984;20.956;2023-08-06T07:26:44;16.20;;;10.90;;
65597;SDS011;52267;51.984;20.956;2023-08-06T07:29:12;17.70;;;11.30;;
65597;SDS011;52267;51.984;20.956;2023-08-06T07:31:39;13.30;;;11.20;;
65597;SDS011;52267;51.984;20.956;2023-08-06T07:34:06;14.30;;;11.50;;
65597;SDS011;52267;51.984;20.956;2023-08-06T07:36:33;17.30;;;11.40;;
65597;SDS011;52267;51.984;20.956;2023-08-06T07:39:00;12.40;;;10.40;;
65597;SDS011;52267;51.984;20.956;2023-08-06T07:41:27;13.00;;;9.60;;
65597;SDS011;52267;51.984;20.956;2023-08-06T07:43:54;15.10;;;11.70;;
65597;SDS011;52267;51.984;20.956;2023-08-06T07:46:21;13.60;;;10.60;;
65597;SDS011;52267;51.984;20.956;2023-08-06T07:48:48;14.40;;;10.80;;
65597;SDS011;52267;51.984;20.956;2023-08-06T07:51:18;14.50;;;10.20;;
65597;SDS011;52267;51.984;20.956;2023-08-06T07:53:45;15.70;;;11.10;;
65597;SDS011;52267;51.984;20.956;2023-08-06T07:56:13;11.90;;;9.80;;
65597;SDS011;52267;51.984;20.956;2023-08-06T07:58:40;11.50;;;10.00;;
65597;SDS011;52267;51.984;20.956;2023-08-06T08:01:07;14.00;;;11.10;;
65597;SDS011;52267;51.984;20.956;2023-08-06T08:03:34;11.90;;;10.00;;
65597;SDS011;52267;51.984;20.956;2023-08-06T08:06:02;15.90;;;10.50;;
65597;SDS011;52267;51.984;20.956;2023-08-06T08:08:29;15.50;;;11.50;;
65597;SDS011;52267;51.984;20.956;2023-08-06T08:10:56;11.60;;;10.40;;
65597;SDS011;52267;51.984;20.956;2023-08-06T08:13:25;15.30;;;10.80;;
65597;SDS011;52267;51.984;20.956;2023-08-06T08:15:57;13.30;;;10.40;;
65597;SDS011;52267;51.984;20.956;2023-08-06T08:18:25;14.30;;;11.00;;
65597;SDS011;52267;51.984;20.956;2023-08-06T08:20:52;12.60;;;10.60;;
65597;SDS011;52267;51.984;20.956;2023-08-06T08:23:19;12.40;;;10.10;;
65597;SDS011;52267;51.984;20.956;2023-08-06T08:25:46;15.20;;;10.80;;
65597;SDS011;52267;51.984;20.956;2023-08-06T08:28:13;12.70;;;10.10;;
65597;SDS011;52267;51.984;20.956;2023-08-06T08:30:41;14.10;;;10.00;;
65597;SDS011;52267;51.984;20.956;2023-08-06T08:33:08;12.70;;;9.70;;
65597;SDS011;52267;51.984;20.956;2023-08-06T08:35:36;15.30;;;10.40;;
65597;SDS011;52267;51.984;20.956;2023-08-06T08:38:04;13.30;;;10.00;;
65597;SDS011;52267;51.984;20.956;2023-08-06T08:40:37;12.40;;;10.30;;
65597;SDS011;52267;51.984;20.956;2023-08-06T08:43:11;13.30;;;9.50;;
65597;SDS011;52267;51.984;20.956;2023-08-06T08:45:40;11.70;;;9.40;;
65597;SDS011;52267;51.984;20.956;2023-08-06T08:48:12;11.30;;;9.90;;
65597;SDS011;52267;51.984;20.956;2023-08-06T08:50:41;15.10;;;10.00;;
65597;SDS011;52267;51.984;20.956;2023-08-06T08:53:11;11.20;;;10.10;;
65597;SDS011;52267;51.984;20.956;2023-08-06T08:55:40;13.80;;;10.60;;
65597;SDS011;52267;51.984;20.956;2023-08-06T08:58:10;13.40;;;10.10;;
65597;SDS011;52267;51.984;20.956;2023-08-06T09:00:38;12.10;;;9.20;;
65597;SDS011;52267;51.984;20.956;2023-08-06T09:03:07;11.10;;;8.50;;
65597;SDS011;52267;51.984;20.956;2023-08-06T09:05:35;11.10;;;9.10;;
65597;SDS011;52267;51.984;20.956;2023-08-06T09:08:04;14.40;;;9.50;;
65597;SDS011;52267;51.984;20.956;2023-08-06T09:10:31;11.00;;;9.40;;
65597;SDS011;52267;51.984;20.956;2023-08-06T09:12:58;12.20;;;8.50;;
65597;SDS011;52267;51.984;20.956;2023-08-06T09:15:28;15.10;;;7.80;;
65597;SDS011;52267;51.984;20.956;2023-08-06T09:17:55;11.30;;;7.80;;
65597;SDS011;52267;51.984;20.956;2023-08-06T09:20:22;10.40;;;8.80;;
65597;SDS011;52267;51.984;20.956;2023-08-06T09:22:52;11.70;;;8.40;;
65597;SDS011;52267;51.984;20.956;2023-08-06T09:25:24;11.30;;;8.00;;
65597;SDS011;52267;51.984;20.956;2023-08-06T09:27:52;11.10;;;8.10;;
65597;SDS011;52267;51.984;20.956;2023-08-06T09:30:30;11.00;;;8.80;;
65597;SDS011;52267;51.984;20.956;2023-08-06T09:32:58;10.50;;;8.10;;
65597;SDS011;52267;51.984;20.956;2023-08-06T09:35:30;11.50;;;8.50;;
65597;SDS011;52267;51.984;20.956;2023-08-06T09:38:08;11.10;;;8.20;;
65597;SDS011;52267;51.984;20.956;2023-08-06T09:40:38;9.00;;;7.90;;
65597;SDS011;52267;51.984;20.956;2023-08-06T09:43:06;10.80;;;8.90;;
65597;SDS011;52267;51.984;20.956;2023-08-06T09:45:37;10.00;;;8.30;;
65597;SDS011;52267;51.984;20.956;2023-08-06T09:48:09;14.20;;;8.70;;
65597;SDS011;52267;51.984;20.956;2023-08-06T09:50:38;12.00;;;7.70;;
65597;SDS011;52267;51.984;20.956;2023-08-06T09:53:07;10.20;;;7.60;;
65597;SDS011;52267;51.984;20.956;2023-08-06T09:55:35;11.70;;;7.70;;
65597;SDS011;52267;51.984;20.956;2023-08-06T09:58:02;12.40;;;8.10;;
65597;SDS011;52267;51.984;20.956;2023-08-06T10:00:30;10.60;;;8.20;;
65597;SDS011;52267;51.984;20.956;2023-08-06T10:05:27;9.80;;;7.80;;
65597;SDS011;52267;51.984;20.956;2023-08-06T10:07:55;8.50;;;7.50;;
65597;SDS011;52267;51.984;20.956;2023-08-06T10:10:24;10.40;;;7.40;;
65597;SDS011;52267;51.984;20.956;2023-08-06T10:12:54;9.50;;;7.20;;
65597;SDS011;52267;51.984;20.956;2023-08-06T10:15:26;9.60;;;6.80;;
65597;SDS011;52267;51.984;20.956;2023-08-06T10:17:58;10.50;;;7.00;;
65597;SDS011;52267;51.984;20.956;2023-08-06T10:20:26;7.70;;;6.80;;
65597;SDS011;52267;51.984;20.956;2023-08-06T10:23:01;7.60;;;6.60;;
65597;SDS011;52267;51.984;20.956;2023-08-06T10:25:33;9.70;;;6.90;;
65597;SDS011;52267;51.984;20.956;2023-08-06T10:28:09;8.00;;;7.20;;
65597;SDS011;52267;51.984;20.956;2023-08-06T10:30:47;9.40;;;6.90;;
65597;SDS011;52267;51.984;20.956;2023-08-06T10:33:14;8.60;;;6.90;;
65597;SDS011;52267;51.984;20.956;2023-08-06T10:35:46;9.10;;;6.60;;
65597;SDS011;52267;51.984;20.956;2023-08-06T10:38:21;8.20;;;6.50;;
65597;SDS011;52267;51.984;20.956;2023-08-06T10:46:08;7.80;;;6.70;;
65597;SDS011;52267;51.984;20.956;2023-08-06T10:48:45;7.50;;;6.40;;
65597;SDS011;52267;51.984;20.956;2023-08-06T10:51:13;7.80;;;5.70;;
65597;SDS011;52267;51.984;20.956;2023-08-06T10:53:45;8.60;;;6.50;;
65597;SDS011;52267;51.984;20.956;2023-08-06T10:56:18;8.10;;;5.50;;
65597;SDS011;52267;51.984;20.956;2023-08-06T10:58:51;9.80;;;6.30;;
65597;SDS011;52267;51.984;20.956;2023-08-06T11:01:21;9.10;;;7.00;;
65597;SDS011;52267;51.984;20.956;2023-08-06T11:03:50;11.30;;;7.00;;
65597;SDS011;52267;51.984;20.956;2023-08-06T11:08:50;10.00;;;7.40;;
65597;SDS011;52267;51.984;20.956;2023-08-06T11:11:22;10.40;;;7.10;;
65597;SDS011;52267;51.984;20.956;2023-08-06T11:13:51;6.90;;;6.10;;
65597;SDS011;52267;51.984;20.956;2023-08-06T11:16:21;9.70;;;6.90;;
65597;SDS011;52267;51.984;20.956;2023-08-06T11:18:52;10.30;;;7.50;;
65597;SDS011;52267;51.984;20.956;2023-08-06T11:21:21;8.40;;;6.70;;
65597;SDS011;52267;51.984;20.956;2023-08-06T11:23:51;8.50;;;6.60;;
65597;SDS011;52267;51.984;20.956;2023-08-06T11:26:22;7.40;;;6.00;;
65597;SDS011;52267;51.984;20.956;2023-08-06T11:28:54;8.20;;;6.20;;
65597;SDS011;52267;51.984;20.956;2023-08-06T11:31:22;9.00;;;6.80;;
65597;SDS011;52267;51.984;20.956;2023-08-06T11:33:50;7.10;;;6.40;;
65597;SDS011;52267;51.984;20.956;2023-08-06T11:36:32;9.30;;;6.90;;
65597;SDS011;52267;51.984;20.956;2023-08-06T11:39:01;7.80;;;6.70;;
65597;SDS011;52267;51.984;20.956;2023-08-06T11:41:29;9.60;;;6.80;;
65597;SDS011;52267;51.984;20.956;2023-08-06T11:43:57;9.80;;;6.40;;
65597;SDS011;52267;51.984;20.956;2023-08-06T11:46:25;8.60;;;6.40;;
65597;SDS011;52267;51.984;20.956;2023-08-06T11:48:56;7.90;;;5.90;;
65597;SDS011;52267;51.984;20.956;2023-08-06T11:51:27;7.40;;;6.20;;
65597;SDS011;52267;51.984;20.956;2023-08-06T11:53:58;6.40;;;5.60;;
65597;SDS011;52267;51.984;20.956;2023-08-06T11:56:26;7.10;;;6.30;;
65597;SDS011;52267;51.984;20.956;2023-08-06T11:58:54;7.20;;;6.40;;
65597;SDS011;52267;51.984;20.956;2023-08-06T12:01:22;6.80;;;5.90;;
65597;SDS011;52267;51.984;20.956;2023-08-06T12:03:49;8.20;;;6.20;;
65597;SDS011;52267;51.984;20.956;2023-08-06T12:06:16;7.40;;;6.20;;
65597;SDS011;52267;51.984;20.956;2023-08-06T12:08:43;7.60;;;6.20;;
65597;SDS011;52267;51.984;20.956;2023-08-06T12:11:10;7.80;;;5.50;;
65597;SDS011;52267;51.984;20.956;2023-08-06T12:13:37;8.50;;;6.30;;
65597;SDS011;52267;51.984;20.956;2023-08-06T12:16:05;7.10;;;6.20;;
65597;SDS011;52267;51.984;20.956;2023-08-06T12:18:32;8.10;;;6.30;;
65597;SDS011;52267;51.984;20.956;2023-08-06T12:20:59;6.60;;;5.50;;
65597;SDS011;52267;51.984;20.956;2023-08-06T12:23:26;7.70;;;6.00;;
65597;SDS011;52267;51.984;20.956;2023-08-06T12:25:53;8.90;;;6.40;;
65597;SDS011;52267;51.984;20.956;2023-08-06T12:28:20;9.40;;;6.40;;
65597;SDS011;52267;51.984;20.956;2023-08-06T12:30:47;8.40;;;6.50;;
65597;SDS011;52267;51.984;20.956;2023-08-06T12:33:15;9.40;;;6.60;;
65597;SDS011;52267;51.984;20.956;2023-08-06T12:35:42;9.20;;;6.80;;
65597;SDS011;52267;51.984;20.956;2023-08-06T12:38:09;7.10;;;6.20;;
65597;SDS011;52267;51.984;20.956;2023-08-06T12:40:36;8.00;;;6.20;;
65597;SDS011;52267;51.984;20.956;2023-08-06T12:43:03;8.70;;;6.00;;
65597;SDS011;52267;51.984;20.956;2023-08-06T12:45:30;7.60;;;5.80;;
65597;SDS011;52267;51.984;20.956;2023-08-06T12:47:57;11.10;;;6.30;;
65597;SDS011;52267;51.984;20.956;2023-08-06T12:50:24;12.70;;;5.80;;
65597;SDS011;52267;51.984;20.956;2023-08-06T12:52:52;6.30;;;4.90;;
65597;SDS011;52267;51.984;20.956;2023-08-06T12:55:19;8.90;;;5.60;;
65597;SDS011;52267;51.984;20.956;2023-08-06T12:57:46;5.90;;;4.20;;
65597;SDS011;52267;51.984;20.956;2023-08-06T13:00:13;7.20;;;4.70;;
65597;SDS011;52267;51.984;20.956;2023-08-06T13:02:40;8.10;;;4.60;;
65597;SDS011;52267;51.984;20.956;2023-08-06T13:05:08;7.20;;;4.50;;
65597;SDS011;52267;51.984;20.956;2023-08-06T13:07:36;5.50;;;4.20;;
65597;SDS011;52267;51.984;20.956;2023-08-06T13:10:04;7.00;;;5.00;;
65597;SDS011;52267;51.984;20.956;2023-08-06T13:12:32;5.90;;;4.30;;
65597;SDS011;52267;51.984;20.956;2023-08-06T13:15:00;6.40;;;5.20;;
65597;SDS011;52267;51.984;20.956;2023-08-06T13:17:28;7.20;;;5.00;;
65597;SDS011;52267;51.984;20.956;2023-08-06T13:19:55;5.80;;;4.80;;
65597;SDS011;52267;51.984;20.956;2023-08-06T13:22:24;6.80;;;4.80;;
65597;SDS011;52267;51.984;20.956;2023-08-06T13:24:51;7.20;;;5.60;;
65597;SDS011;52267;51.984;20.956;2023-08-06T13:27:19;7.40;;;5.80;;
65597;SDS011;52267;51.984;20.956;2023-08-06T13:29:46;9.40;;;6.00;;
65597;SDS011;52267;51.984;20.956;2023-08-06T13:32:14;7.90;;;5.80;;
65597;SDS011;52267;51.984;20.956;2023-08-06T13:34:42;7.30;;;6.30;;
65597;SDS011;52267;51.984;20.956;2023-08-06T13:37:09;6.70;;;5.70;;
65597;SDS011;52267;51.984;20.956;2023-08-06T13:39:37;8.30;;;6.00;;
65597;SDS011;52267;51.984;20.956;2023-08-06T13:42:05;7.50;;;5.70;;
65597;SDS011;52267;51.984;20.956;2023-08-06T13:44:32;6.60;;;5.50;;
65597;SDS011;52267;51.984;20.956;2023-08-06T13:47:02;6.90;;;4.90;;
65597;SDS011;52267;51.984;20.956;2023-08-06T13:49:30;7.20;;;5.00;;
65597;SDS011;52267;51.984;20.956;2023-08-06T13:51:57;7.50;;;5.70;;
65597;SDS011;52267;51.984;20.956;2023-08-06T13:54:25;6.80;;;5.60;;
65597;SDS011;52267;51.984;20.956;2023-08-06T13:56:52;7.70;;;5.40;;
65597;SDS011;52267;51.984;20.956;2023-08-06T13:59:19;7.10;;;5.60;;
65597;SDS011;52267;51.984;20.956;2023-08-06T14:01:47;8.60;;;5.10;;
65597;SDS011;52267;51.984;20.956;2023-08-06T14:04:14;6.30;;;5.60;;
65597;SDS011;52267;51.984;20.956;2023-08-06T14:06:41;8.30;;;5.30;;
65597;SDS011;52267;51.984;20.956;2023-08-06T14:09:09;5.90;;;5.20;;
65597;SDS011;52267;51.984;20.956;2023-08-06T14:11:39;7.10;;;4.90;;
65597;SDS011;52267;51.984;20.956;2023-08-06T14:14:07;6.20;;;5.10;;
65597;SDS011;52267;51.984;20.956;2023-08-06T14:16:34;7.00;;;5.20;;
65597;SDS011;52267;51.984;20.956;2023-08-06T14:19:03;6.50;;;4.60;;
65597;SDS011;52267;51.984;20.956;2023-08-06T14:21:30;5.70;;;4.50;;
65597;SDS011;52267;51.984;20.956;2023-08-06T14:23:58;4.50;;;3.60;;
65597;SDS011;52267;51.984;20.956;2023-08-06T14:26:25;6.80;;;4.30;;
65597;SDS011;52267;51.984;20.956;2023-08-06T14:28:53;6.10;;;4.70;;
65597;SDS011;52267;51.984;20.956;2023-08-06T14:31:21;5.10;;;2.70;;
65597;SDS011;52267;51.984;20.956;2023-08-06T14:33:48;4.60;;;2.60;;
65597;SDS011;52267;51.984;20.956;2023-08-06T14:36:16;3.20;;;2.10;;
65597;SDS011;52267;51.984;20.956;2023-08-06T14:38:44;3.60;;;2.30;;